createdAt,value
2023-02-08T00:01:09.052Z,88585.06
2023-02-08T00:03:36.892Z,88587.16
2023-02-08T00:06:06.218Z,88583.53
2023-02-08T00:08:34.526Z,88582.28
2023-02-08T00:11:02.412Z,88590.50
2023-02-08T00:13:30.707Z,88586.88
2023-02-08T00:15:58.166Z,88574.41
2023-02-08T00:18:25.568Z,88580.28
2023-02-08T00:20:53.088Z,88577.50
2023-02-08T00:23:20.339Z,88569.13
2023-02-08T00:25:47.567Z,88576.47
2023-02-08T00:28:17.887Z,88579.81
2023-02-08T00:30:45.801Z,88582.53
2023-02-08T00:33:13.280Z,88581.75
2023-02-08T00:35:40.567Z,88582.00
2023-02-08T00:38:07.836Z,88578.41
2023-02-08T00:40:35.365Z,88585.09
2023-02-08T00:43:03.008Z,88591.88
2023-02-08T00:45:32.557Z,88588.94
2023-02-08T00:47:59.973Z,88588.31
2023-02-08T00:50:27.312Z,88585.22
2023-02-08T00:52:54.468Z,88597.16
2023-02-08T00:55:21.729Z,88585.28
2023-02-08T00:57:49.240Z,88593.53
2023-02-08T01:00:16.991Z,88607.19
2023-02-08T01:02:44.557Z,88608.50
2023-02-08T01:05:11.891Z,88610.28
2023-02-08T01:07:40.027Z,88615.94
2023-02-08T01:10:08.871Z,88600.06
2023-02-08T01:12:36.247Z,88614.28
2023-02-08T01:15:03.838Z,88610.97
2023-02-08T01:17:31.195Z,88609.19
2023-02-08T01:19:58.543Z,88613.28
2023-02-08T01:22:25.716Z,88612.03
2023-02-08T01:24:53.044Z,88611.97
2023-02-08T01:27:20.291Z,88609.88
2023-02-08T01:29:47.411Z,88612.31
2023-02-08T01:32:14.584Z,88612.78
2023-02-08T01:34:54.258Z,88615.59
2023-02-08T01:37:21.472Z,88616.75
2023-02-08T01:40:08.058Z,88616.31
2023-02-08T01:42:35.726Z,88606.88
2023-02-08T01:45:18.206Z,88607.00
2023-02-08T01:47:54.709Z,88608.59
2023-02-08T01:50:31.109Z,88609.03
2023-02-08T01:52:59.541Z,88600.34
2023-02-08T01:55:40.986Z,88609.03
2023-02-08T01:58:12.424Z,88598.13
2023-02-08T02:00:40.300Z,88598.03
2023-02-08T02:03:08.497Z,88590.13
2023-02-08T02:05:48.335Z,88587.63
2023-02-08T02:08:16.158Z,88588.75
2023-02-08T02:10:44.244Z,88596.19
2023-02-08T02:13:23.263Z,88597.28
2023-02-08T02:15:52.136Z,88590.41
2023-02-08T02:18:31.953Z,88592.72
2023-02-08T02:21:14.192Z,88586.88
2023-02-08T02:24:15.577Z,88578.88
2023-02-08T02:27:36.788Z,88587.41
2023-02-08T02:30:28.385Z,88594.06
2023-02-08T02:33:10.187Z,88595.41
2023-02-08T02:35:56.503Z,88589.56
2023-02-08T02:38:48.072Z,88584.13
2023-02-08T02:41:35.881Z,88592.00
2023-02-08T02:44:07.344Z,88591.59
2023-02-08T02:46:51.069Z,88593.25
2023-02-08T02:49:32.877Z,88591.38
2023-02-08T02:52:09.713Z,88596.03
2023-02-08T02:55:02.877Z,88596.34
2023-02-08T02:57:33.636Z,88588.56
2023-02-08T03:00:06.140Z,88591.47
2023-02-08T03:02:33.400Z,88593.00
2023-02-08T03:05:00.578Z,88584.59
2023-02-08T03:07:59.675Z,88593.91
2023-02-08T03:10:52.701Z,88579.72
2023-02-08T03:13:46.401Z,88587.69
2023-02-08T03:16:31.733Z,88588.94
2023-02-08T03:19:23.084Z,88586.50
2023-02-08T03:22:24.770Z,88601.13
2023-02-08T03:24:58.950Z,88602.91
2023-02-08T03:27:41.542Z,88605.56
2023-02-08T03:30:28.044Z,88598.03
2023-02-08T03:33:11.804Z,88598.59
2023-02-08T03:35:50.960Z,88597.03
2023-02-08T03:38:36.126Z,88590.50
2023-02-08T03:41:07.955Z,88593.50
2023-02-08T03:43:47.932Z,88596.25
2023-02-08T03:46:42.882Z,88590.28
2023-02-08T03:49:20.546Z,88582.88
2023-02-08T03:51:49.516Z,88575.56
2023-02-08T03:54:26.563Z,88571.34
2023-02-08T03:57:19.980Z,88566.25
2023-02-08T04:00:02.400Z,88571.69
2023-02-08T04:02:37.727Z,88577.56
2023-02-08T04:05:07.631Z,88583.22
2023-02-08T04:07:35.072Z,88581.19
2023-02-08T04:10:03.980Z,88588.38
2023-02-08T04:12:31.259Z,88578.63
2023-02-08T04:14:58.636Z,88582.22
2023-02-08T04:17:25.888Z,88582.44
2023-02-08T04:19:53.031Z,88586.53
2023-02-08T04:22:20.123Z,88587.31
2023-02-08T04:24:47.411Z,88584.22
2023-02-08T04:27:14.778Z,88583.13
2023-02-08T04:29:42.022Z,88574.22
2023-02-08T04:32:09.272Z,88582.09
2023-02-08T04:34:36.517Z,88582.22
2023-02-08T04:37:03.895Z,88584.00
2023-02-08T04:39:31.233Z,88578.44
2023-02-08T04:41:58.434Z,88579.22
2023-02-08T04:44:25.665Z,88582.53
2023-02-08T04:46:52.977Z,88583.44
2023-02-08T04:49:20.566Z,88581.00
2023-02-08T04:52:23.419Z,88585.00
2023-02-08T04:54:50.621Z,88581.44
2023-02-08T04:57:36.371Z,88584.09
2023-02-08T05:00:04.598Z,88587.41
2023-02-08T05:02:31.923Z,88585.84
2023-02-08T05:04:59.137Z,88583.97
2023-02-08T05:07:26.319Z,88582.56
2023-02-08T05:09:53.501Z,88586.50
2023-02-08T05:12:20.776Z,88585.53
2023-02-08T05:14:48.388Z,88590.81
2023-02-08T05:17:15.843Z,88581.78
2023-02-08T05:19:43.496Z,88587.06
2023-02-08T05:22:10.673Z,88574.13
2023-02-08T05:24:37.922Z,88579.09
2023-02-08T05:27:05.085Z,88572.56
2023-02-08T05:29:32.663Z,88573.13
2023-02-08T05:32:00.426Z,88572.56
2023-02-08T05:34:28.393Z,88579.53
2023-02-08T05:36:56.081Z,88580.66
2023-02-08T05:39:23.684Z,88581.41
2023-02-08T05:41:51.229Z,88594.69
2023-02-08T05:44:18.848Z,88593.94
2023-02-08T05:46:48.654Z,88598.81
2023-02-08T05:49:16.429Z,88589.59
2023-02-08T05:51:44.178Z,88593.59
2023-02-08T05:57:23.976Z,88599.88
2023-02-08T05:59:51.493Z,88603.00
2023-02-08T06:02:19.165Z,88610.97
2023-02-08T06:04:46.775Z,88604.09
2023-02-08T06:07:14.401Z,88613.41
2023-02-08T06:09:42.028Z,88607.63
2023-02-08T06:12:19.316Z,88605.63
2023-02-08T06:14:48.114Z,88604.66
2023-02-08T06:21:04.084Z,88592.88
2023-02-08T06:23:32.187Z,88598.63
2023-02-08T06:25:59.606Z,88590.91
2023-02-08T06:28:26.955Z,88594.19
2023-02-08T06:30:54.223Z,88593.63
2023-02-08T06:33:21.497Z,88593.31
2023-02-08T06:35:52.431Z,88600.53
2023-02-08T06:38:20.674Z,88594.41
2023-02-08T06:40:49.678Z,88595.19
2023-02-08T06:43:17.477Z,88600.56
2023-02-08T06:45:46.622Z,88594.16
2023-02-08T06:48:14.556Z,88598.91
2023-02-08T06:50:59.233Z,88597.38
2023-02-08T06:53:28.648Z,88602.91
2023-02-08T06:55:56.064Z,88601.13
2023-02-08T06:58:25.189Z,88599.25
2023-02-08T07:00:52.617Z,88600.78
2023-02-08T07:03:19.958Z,88594.47
2023-02-08T07:06:03.491Z,88593.03
2023-02-08T07:08:35.161Z,88594.94
2023-02-08T07:11:11.791Z,88590.63
2023-02-08T07:13:39.762Z,88589.66
2023-02-08T07:16:09.774Z,88593.72
2023-02-08T07:18:37.431Z,88583.91
2023-02-08T07:21:05.268Z,88586.44
2023-02-08T07:23:33.072Z,88583.03
2023-02-08T07:26:04.143Z,88582.16
2023-02-08T07:28:31.657Z,88582.63
2023-02-08T07:30:59.300Z,88582.63
2023-02-08T07:33:26.851Z,88580.97
2023-02-08T07:35:54.077Z,88585.44
2023-02-08T07:38:45.368Z,88581.88
2023-02-08T07:41:18.694Z,88582.75
2023-02-08T07:43:45.964Z,88576.31
2023-02-08T07:46:22.261Z,88579.63
2023-02-08T07:49:43.990Z,88574.59
2023-02-08T07:52:11.265Z,88580.50
2023-02-08T07:54:38.451Z,88570.94
2023-02-08T07:57:05.666Z,88573.47
2023-02-08T07:59:32.932Z,88567.81
2023-02-08T08:02:00.246Z,88569.88
2023-02-08T08:04:27.728Z,88573.63
2023-02-08T08:06:54.965Z,88569.28
2023-02-08T08:09:22.191Z,88566.94
2023-02-08T08:11:49.364Z,88558.66
2023-02-08T08:14:16.540Z,88561.09
2023-02-08T08:16:43.715Z,88560.56
2023-02-08T08:19:10.944Z,88552.44
2023-02-08T08:21:38.324Z,88555.63
2023-02-08T08:24:05.896Z,88555.63
2023-02-08T08:26:33.405Z,88552.47
2023-02-08T08:29:01.018Z,88537.53
2023-02-08T08:31:28.678Z,88542.06
2023-02-08T08:33:56.207Z,88540.22
2023-02-08T08:36:23.612Z,88547.47
2023-02-08T08:38:52.112Z,88530.97
2023-02-08T08:41:19.425Z,88531.09
2023-02-08T08:43:46.800Z,88532.22
2023-02-08T08:46:14.672Z,88531.22
2023-02-08T08:48:41.982Z,88537.16
2023-02-08T08:51:09.445Z,88535.47
2023-02-08T08:53:37.045Z,88532.47
2023-02-08T08:56:05.331Z,88534.22
2023-02-08T08:58:33.210Z,88536.91
2023-02-08T09:01:01.403Z,88541.91
2023-02-08T09:03:29.804Z,88540.75
2023-02-08T09:05:57.440Z,88540.16
2023-02-08T09:08:24.632Z,88527.72
2023-02-08T09:10:52.219Z,88532.19
2023-02-08T09:13:19.560Z,88537.72
2023-02-08T09:15:48.390Z,88534.72
2023-02-08T09:18:16.480Z,88522.47
2023-02-08T09:20:44.045Z,88519.97
2023-02-08T09:23:12.212Z,88529.53
2023-02-08T09:25:39.566Z,88539.84
2023-02-08T09:28:07.164Z,88538.84
2023-02-08T09:30:36.033Z,88532.03
2023-02-08T09:33:03.385Z,88538.69
2023-02-08T09:35:30.838Z,88536.47
2023-02-08T09:37:58.581Z,88543.69
2023-02-08T09:40:38.106Z,88546.06
2023-02-08T09:43:55.827Z,88547.13
2023-02-08T09:46:28.231Z,88543.53
2023-02-08T09:49:01.606Z,88550.25
2023-02-08T09:51:51.251Z,88549.75
2023-02-08T09:54:41.673Z,88541.03
2023-02-08T09:57:26.492Z,88544.16
2023-02-08T10:00:11.866Z,88539.56
2023-02-08T10:02:43.359Z,88527.78
2023-02-08T10:05:25.989Z,88529.84
2023-02-08T10:08:01.889Z,88526.81
2023-02-08T10:11:13.967Z,88515.00
2023-02-08T10:14:35.191Z,88528.41
2023-02-08T10:17:52.524Z,88520.97
2023-02-08T10:20:51.717Z,88521.75
2023-02-08T10:23:37.072Z,88508.94
2023-02-08T10:26:18.211Z,88512.00
2023-02-08T10:29:19.892Z,88514.34
2023-02-08T10:32:27.448Z,88497.91
2023-02-08T10:35:13.490Z,88490.69
2023-02-08T10:37:44.716Z,88489.41
2023-02-08T10:40:37.702Z,88486.03
2023-02-08T10:43:33.895Z,88485.53
2023-02-08T10:46:32.600Z,88483.47
2023-02-08T10:49:22.798Z,88484.22
2023-02-08T10:51:50.233Z,88478.00
2023-02-08T10:54:17.613Z,88472.31
2023-02-08T10:56:50.037Z,88458.91
2023-02-08T10:59:22.849Z,88456.81
2023-02-08T11:01:51.290Z,88453.72
2023-02-08T11:04:19.667Z,88458.09
2023-02-08T11:06:49.488Z,88446.22
2023-02-08T11:09:30.506Z,88443.13
2023-02-08T11:12:02.380Z,88438.97
2023-02-08T11:14:53.370Z,88442.25
2023-02-08T11:17:31.194Z,88435.00
2023-02-08T11:20:00.100Z,88437.81
2023-02-08T11:22:30.306Z,88442.13
2023-02-08T11:25:05.689Z,88447.78
2023-02-08T11:27:37.955Z,88447.78
2023-02-08T11:30:14.383Z,88453.13
2023-02-08T11:32:43.952Z,88447.47
2023-02-08T11:35:23.737Z,88457.97
2023-02-08T11:37:55.227Z,88452.28
2023-02-08T11:40:36.415Z,88452.00
2023-02-08T11:43:05.252Z,88458.16
2023-02-08T11:45:36.138Z,88464.59
2023-02-08T11:48:05.405Z,88462.28
2023-02-08T11:50:37.646Z,88448.31
2023-02-08T11:53:20.875Z,88458.94
2023-02-08T11:56:17.436Z,88459.06
2023-02-08T11:59:18.944Z,88443.41
2023-02-08T12:01:46.686Z,88437.13
2023-02-08T12:04:17.975Z,88436.81
2023-02-08T12:07:17.709Z,88439.94
2023-02-08T12:10:33.336Z,88432.28
2023-02-08T12:13:14.317Z,88430.41
2023-02-08T12:16:27.508Z,88424.91
2023-02-08T12:19:22.149Z,88419.50
2023-02-08T12:22:05.107Z,88411.09
2023-02-08T12:24:54.590Z,88411.53
2023-02-08T12:27:36.693Z,88411.22
2023-02-08T12:30:19.562Z,88407.38
2023-02-08T12:33:11.241Z,88406.09
2023-02-08T12:36:03.671Z,88409.59
2023-02-08T12:39:19.695Z,88416.72
2023-02-08T12:42:26.673Z,88412.59
2023-02-08T12:45:37.466Z,88409.50
2023-02-08T12:48:25.184Z,88419.75
2023-02-08T12:51:18.836Z,88416.56
2023-02-08T12:54:03.574Z,88410.91
2023-02-08T12:56:39.428Z,88416.16
2023-02-08T12:59:13.878Z,88417.75
2023-02-08T13:01:48.481Z,88406.66
2023-02-08T13:04:28.164Z,88417.75
2023-02-08T13:07:11.640Z,88403.50
2023-02-08T13:10:00.417Z,88399.56
2023-02-08T13:12:36.113Z,88396.16
2023-02-08T13:15:30.268Z,88395.22
2023-02-08T13:18:02.843Z,88404.00
2023-02-08T13:20:49.920Z,88399.03
2023-02-08T13:23:27.073Z,88403.91
2023-02-08T13:26:37.915Z,88412.84
2023-02-08T13:29:05.694Z,88412.44
2023-02-08T13:31:41.134Z,88411.81
2023-02-08T13:34:37.701Z,88411.97
2023-02-08T13:37:25.491Z,88415.84
2023-02-08T13:40:29.681Z,88426.44
2023-02-08T13:43:08.626Z,88420.16
2023-02-08T13:45:44.106Z,88417.81
2023-02-08T13:48:16.840Z,88414.13
2023-02-08T13:50:46.880Z,88423.22
2023-02-08T13:53:16.993Z,88422.94
2023-02-08T13:55:57.892Z,88418.38
2023-02-08T13:58:46.387Z,88418.72
2023-02-08T14:01:22.675Z,88419.34
2023-02-08T14:04:08.264Z,88414.28
2023-02-08T14:06:55.958Z,88414.81
2023-02-08T14:09:43.845Z,88421.13
2023-02-08T14:12:41.198Z,88426.88
2023-02-08T14:15:35.157Z,88423.41
2023-02-08T14:18:03.622Z,88421.31
2023-02-08T14:20:37.870Z,88428.53
2023-02-08T14:23:23.240Z,88427.09
2023-02-08T14:25:55.617Z,88437.66
2023-02-08T14:28:36.965Z,88436.13
2023-02-08T14:31:10.224Z,88433.88
2023-02-08T14:33:50.005Z,88439.06
2023-02-08T14:36:33.496Z,88437.31
2023-02-08T14:39:23.679Z,88449.69
2023-02-08T14:41:55.147Z,88451.28
2023-02-08T14:44:40.616Z,88450.00
2023-02-08T14:47:25.908Z,88465.25
2023-02-08T14:50:05.929Z,88463.28
2023-02-08T14:52:35.479Z,88460.03
2023-02-08T14:55:18.416Z,88464.38
2023-02-08T14:57:46.403Z,88461.06
2023-02-08T15:00:25.478Z,88478.81
2023-02-08T15:02:56.096Z,88481.63
2023-02-08T15:05:40.529Z,88479.34
2023-02-08T15:08:07.974Z,88474.28
2023-02-08T15:10:41.550Z,88472.41
2023-02-08T15:13:23.905Z,88464.47
2023-02-08T15:15:55.924Z,88471.00
2023-02-08T15:18:30.528Z,88471.31
2023-02-08T15:21:04.373Z,88476.53
2023-02-08T15:23:31.936Z,88475.75
2023-02-08T15:26:06.720Z,88478.03
2023-02-08T15:28:37.245Z,88480.09
2023-02-08T15:31:09.874Z,88480.88
2023-02-08T15:33:41.988Z,88484.25
2023-02-08T15:36:21.502Z,88481.16
2023-02-08T15:38:49.381Z,88487.59
2023-02-08T15:41:32.779Z,88497.13
2023-02-08T15:44:18.917Z,88491.44
2023-02-08T15:46:48.909Z,88489.91
2023-02-08T15:49:30.816Z,88489.63
2023-02-08T15:51:59.826Z,88505.31
2023-02-08T15:54:27.769Z,88493.50
2023-02-08T15:57:09.515Z,88495.00
2023-02-08T15:59:40.318Z,88498.88
2023-02-08T16:02:24.763Z,88496.81
2023-02-08T16:04:52.416Z,88494.50
2023-02-08T16:07:33.808Z,88498.38
2023-02-08T16:10:01.686Z,88506.34
2023-02-08T16:12:29.597Z,88514.06
2023-02-08T16:14:57.731Z,88517.38
2023-02-08T16:17:44.558Z,88520.75
2023-02-08T16:20:34.150Z,88523.06
2023-02-08T16:23:33.686Z,88535.47
2023-02-08T16:26:55.331Z,88535.22
2023-02-08T16:29:35.103Z,88528.53
2023-02-08T16:32:27.117Z,88529.03
2023-02-08T16:34:54.894Z,88533.44
2023-02-08T16:37:34.066Z,88539.06
2023-02-08T16:40:39.644Z,88542.69
2023-02-08T16:43:30.244Z,88550.66
2023-02-08T16:46:21.958Z,88546.53
2023-02-08T16:48:55.871Z,88542.69
2023-02-08T16:51:34.245Z,88546.50
2023-02-08T16:54:07.084Z,88552.19
2023-02-08T16:56:39.200Z,88556.78
2023-02-08T16:59:07.187Z,88547.53
2023-02-08T17:01:42.665Z,88556.53
2023-02-08T17:04:10.366Z,88558.31
2023-02-08T17:06:41.765Z,88560.91
2023-02-08T17:09:13.053Z,88556.78
2023-02-08T17:11:41.573Z,88569.59
2023-02-08T17:14:09.374Z,88581.41
2023-02-08T17:16:38.204Z,88575.72
2023-02-08T17:19:06.290Z,88579.81
2023-02-08T17:21:34.137Z,88578.75
2023-02-08T17:24:01.370Z,88577.19
2023-02-08T17:26:34.770Z,88572.53
2023-02-08T17:29:02.036Z,88576.59
2023-02-08T17:31:32.666Z,88569.88
2023-02-08T17:34:00.206Z,88574.97
2023-02-08T17:36:29.820Z,88572.16
2023-02-08T17:38:57.565Z,88572.13
2023-02-08T17:41:24.995Z,88574.91
2023-02-08T17:43:54.468Z,88571.31
2023-02-08T17:46:28.977Z,88571.78
2023-02-08T17:48:58.286Z,88569.72
2023-02-08T17:51:25.986Z,88584.59
2023-02-08T17:53:53.650Z,88585.53
2023-02-08T17:56:24.570Z,88588.34
2023-02-08T17:58:53.745Z,88595.47
2023-02-08T18:01:26.116Z,88600.38
2023-02-08T18:03:54.303Z,88603.91
2023-02-08T18:06:22.620Z,88608.75
2023-02-08T18:08:49.987Z,88613.88
2023-02-08T18:11:20.121Z,88611.56
2023-02-08T18:13:55.271Z,88613.31
2023-02-08T18:16:27.505Z,88613.56
2023-02-08T18:18:58.116Z,88618.84
2023-02-08T18:21:26.161Z,88618.94
2023-02-08T18:23:53.774Z,88618.16
2023-02-08T18:26:25.302Z,88621.97
2023-02-08T18:28:53.080Z,88616.28
2023-02-08T18:31:21.227Z,88623.94
2023-02-08T18:33:50.753Z,88625.44
2023-02-08T18:36:21.087Z,88619.22
2023-02-08T18:38:52.423Z,88617.19
2023-02-08T18:41:25.427Z,88620.78
2023-02-08T18:43:54.562Z,88626.38
2023-02-08T18:46:24.846Z,88618.16
2023-02-08T18:48:53.351Z,88630.56
2023-02-08T18:51:23.389Z,88625.38
2023-02-08T18:53:55.196Z,88630.50
2023-02-08T18:56:26.776Z,88614.38
2023-02-08T18:58:58.264Z,88620.94
2023-02-08T19:01:25.844Z,88629.91
2023-02-08T19:03:54.505Z,88621.69
2023-02-08T19:06:26.074Z,88620.94
2023-02-08T19:08:56.508Z,88621.69
2023-02-08T19:11:31.398Z,88624.50
2023-02-08T19:14:02.600Z,88623.97
2023-02-08T19:16:33.174Z,88629.09
2023-02-08T19:19:00.941Z,88627.78
2023-02-08T19:21:29.938Z,88632.13
2023-02-08T19:23:58.342Z,88629.03
2023-02-08T19:26:32.618Z,88638.50
2023-02-08T19:29:03.065Z,88630.53
2023-02-08T19:31:31.150Z,88632.63
2023-02-08T19:34:01.098Z,88634.63
2023-02-08T19:36:46.501Z,88641.78
2023-02-08T19:39:18.994Z,88640.00
2023-02-08T19:41:47.666Z,88641.25
2023-02-08T19:44:18.871Z,88639.56
2023-02-08T19:46:55.641Z,88645.41
2023-02-08T19:49:24.437Z,88641.78
2023-02-08T19:51:52.661Z,88633.31
2023-02-08T19:54:21.504Z,88641.78
2023-02-08T19:56:49.126Z,88640.22
2023-02-08T19:59:24.406Z,88641.72
2023-02-08T20:01:53.037Z,88639.78
2023-02-08T20:04:21.739Z,88647.34
2023-02-08T20:06:53.083Z,88649.91
2023-02-08T20:09:21.509Z,88649.38
2023-02-08T20:11:57.877Z,88638.34
2023-02-08T20:14:28.451Z,88642.22
2023-02-08T20:16:56.691Z,88644.00
2023-02-08T20:19:24.825Z,88653.22
2023-02-08T20:21:53.003Z,88652.47
2023-02-08T20:24:20.552Z,88650.97
2023-02-08T20:26:49.205Z,88647.56
2023-02-08T20:29:17.417Z,88655.03
2023-02-08T20:31:47.955Z,88662.16
2023-02-08T20:34:17.870Z,88669.38
2023-02-08T20:36:57.489Z,88666.84
2023-02-08T20:39:28.996Z,88660.47
2023-02-08T20:41:56.149Z,88670.47
2023-02-08T20:44:23.362Z,88665.25
2023-02-08T20:46:50.666Z,88670.09
2023-02-08T20:49:18.022Z,88671.78
2023-02-08T20:51:45.249Z,88672.47
2023-02-08T20:54:12.591Z,88678.06
2023-02-08T20:56:40.043Z,88674.50
2023-02-08T20:59:12.029Z,88676.06
2023-02-08T21:01:39.500Z,88682.16
2023-02-08T21:04:06.974Z,88677.91
2023-02-08T21:06:37.249Z,88682.00
2023-02-08T21:09:13.038Z,88682.69
2023-02-08T21:11:40.830Z,88681.16
2023-02-08T21:14:10.486Z,88682.41
2023-02-08T21:16:38.475Z,88694.66
2023-02-08T21:19:05.807Z,88689.06
2023-02-08T21:21:33.147Z,88693.09
2023-02-08T21:24:00.365Z,88688.22
2023-02-08T21:26:28.279Z,88687.44
2023-02-08T21:28:57.280Z,88686.44
2023-02-08T21:31:25.583Z,88692.09
2023-02-08T21:33:53.614Z,88693.00
2023-02-08T21:36:24.621Z,88684.72
2023-02-08T21:38:52.066Z,88684.31
2023-02-08T21:41:24.747Z,88684.53
2023-02-08T21:43:56.401Z,88684.53
2023-02-08T21:46:23.790Z,88682.06
2023-02-08T21:48:52.187Z,88681.75
2023-02-08T21:51:21.226Z,88681.44
2023-02-08T21:53:48.444Z,88681.44
2023-02-08T21:56:15.916Z,88678.78
2023-02-08T21:58:43.494Z,88680.50
2023-02-08T22:01:10.852Z,88682.75
2023-02-08T22:03:38.122Z,88688.72
2023-02-08T22:06:05.687Z,88690.88
2023-02-08T22:08:32.895Z,88693.44
2023-02-08T22:11:00.507Z,88686.25
2023-02-08T22:13:28.086Z,88690.22
2023-02-08T22:15:55.307Z,88687.13
2023-02-08T22:18:22.854Z,88678.06
2023-02-08T22:20:54.173Z,88675.41
2023-02-08T22:23:22.007Z,88673.78
2023-02-08T22:25:49.213Z,88671.00
2023-02-08T22:28:16.534Z,88670.06
2023-02-08T22:30:48.746Z,88675.97
2023-02-08T22:33:16.169Z,88679.31
2023-02-08T22:35:43.349Z,88683.41
2023-02-08T22:38:10.585Z,88691.44
2023-02-08T22:40:40.929Z,88685.31
2023-02-08T22:43:08.181Z,88686.31
2023-02-08T22:45:35.537Z,88683.91
2023-02-08T22:48:02.922Z,88681.16
2023-02-08T22:50:30.573Z,88687.03
2023-02-08T22:52:57.817Z,88674.72
2023-02-08T22:55:25.043Z,88671.72
2023-02-08T22:57:52.294Z,88676.72
2023-02-08T23:00:19.508Z,88679.28
2023-02-08T23:02:46.774Z,88677.19
2023-02-08T23:05:14.104Z,88675.31
2023-02-08T23:07:41.436Z,88667.22
2023-02-08T23:10:10.209Z,88667.13
2023-02-08T23:12:37.504Z,88661.13
2023-02-08T23:15:05.214Z,88667.34
2023-02-08T23:17:32.486Z,88662.78
2023-02-08T23:20:00.008Z,88664.78
2023-02-08T23:22:27.289Z,88655.81
2023-02-08T23:24:54.523Z,88650.69
2023-02-08T23:27:21.682Z,88650.50
2023-02-08T23:29:49.094Z,88654.25
2023-02-08T23:32:16.380Z,88650.16
2023-02-08T23:34:43.598Z,88653.16
2023-02-08T23:37:10.837Z,88651.59
2023-02-08T23:39:38.151Z,88650.28
2023-02-08T23:42:05.482Z,88649.50
2023-02-08T23:44:32.635Z,88654.84
2023-02-08T23:47:00.494Z,88658.84
2023-02-08T23:49:27.724Z,88656.31
2023-02-08T23:51:54.957Z,88660.94
2023-02-08T23:54:22.360Z,88645.63
2023-02-08T23:56:49.564Z,88644.75
2023-02-08T23:59:16.751Z,88636.75
